sensor_id;sensor_type;location;lat;lon;timestamp;pressure;altitude;pressure_sealevel;temperature;humidity
77702;BME280;66868;42.708;23.404;2023-04-03T00:01:01;94567.94;;;7.33;72.60
77702;BME280;66868;42.708;23.404;2023-04-03T00:03:27;94564.34;;;7.37;73.20
77702;BME280;66868;42.708;23.404;2023-04-03T00:05:52;94569.94;;;7.42;72.33
77702;BME280;66868;42.708;23.404;2023-04-03T00:08:18;94527.34;;;7.24;72.89
77702;BME280;66868;42.708;23.404;2023-04-03T00:10:43;94560.78;;;7.41;72.18
77702;BME280;66868;42.708;23.404;2023-04-03T00:13:09;94565.56;;;7.46;72.36
77702;BME280;66868;42.708;23.404;2023-04-03T00:15:35;94545.28;;;7.33;72.01
77702;BME280;66868;42.708;23.404;2023-04-03T00:18:02;94546.19;;;7.32;72.13
77702;BME280;66868;42.708;23.404;2023-04-03T00:20:28;94543.28;;;7.24;71.86
77702;BME280;66868;42.708;23.404;2023-04-03T00:22:54;94537.91;;;7.30;72.17
77702;BME280;66868;42.708;23.404;2023-04-03T00:25:19;94536.09;;;7.32;71.88
77702;BME280;66868;42.708;23.404;2023-04-03T00:27:45;94535.22;;;7.33;72.36
77702;BME280;66868;42.708;23.404;2023-04-03T00:30:13;94542.78;;;7.33;72.46
77702;BME280;66868;42.708;23.404;2023-04-03T00:32:39;94546.34;;;7.29;72.47
77702;BME280;66868;42.708;23.404;2023-04-03T00:35:05;94541.47;;;7.26;72.70
77702;BME280;66868;42.708;23.404;2023-04-03T00:37:30;94547.00;;;7.17;71.73
77702;BME280;66868;42.708;23.404;2023-04-03T00:39:56;94546.72;;;6.76;74.82
77702;BME280;66868;42.708;23.404;2023-04-03T00:42:21;94538.69;;;6.70;74.72
77702;BME280;66868;42.708;23.404;2023-04-03T00:47:16;94552.97;;;6.69;75.00
77702;BME280;66868;42.708;23.404;2023-04-03T00:49:42;94544.63;;;6.69;75.21
77702;BME280;66868;42.708;23.404;2023-04-03T00:52:12;94554.00;;;6.81;74.79
77702;BME280;66868;42.708;23.404;2023-04-03T00:54:41;94553.13;;;6.82;74.13
77702;BME280;66868;42.708;23.404;2023-04-03T00:57:08;94549.97;;;6.78;74.93
77702;BME280;66868;42.708;23.404;2023-04-03T00:59:36;94556.88;;;6.75;74.39
77702;BME280;66868;42.708;23.404;2023-04-03T01:02:04;94550.22;;;6.74;74.59
77702;BME280;66868;42.708;23.404;2023-04-03T01:04:30;94558.41;;;6.77;74.91
77702;BME280;66868;42.708;23.404;2023-04-03T01:06:58;94555.81;;;6.79;74.90
77702;BME280;66868;42.708;23.404;2023-04-03T01:09:26;94556.13;;;6.73;74.48
77702;BME280;66868;42.708;23.404;2023-04-03T01:11:53;94550.25;;;6.41;76.40
77702;BME280;66868;42.708;23.404;2023-04-03T01:14:18;94553.00;;;6.36;77.20
77702;BME280;66868;42.708;23.404;2023-04-03T01:16:52;94561.13;;;6.41;76.59
77702;BME280;66868;42.708;23.404;2023-04-03T01:19:19;94557.88;;;6.39;76.47
77702;BME280;66868;42.708;23.404;2023-04-03T01:21:51;94554.41;;;6.42;76.41
77702;BME280;66868;42.708;23.404;2023-04-03T01:24:36;94557.56;;;6.45;76.15
77702;BME280;66868;42.708;23.404;2023-04-03T01:27:04;94552.38;;;6.48;75.86
77702;BME280;66868;42.708;23.404;2023-04-03T01:29:30;94562.13;;;6.54;76.30
77702;BME280;66868;42.708;23.404;2023-04-03T01:31:58;94556.69;;;6.62;75.84
77702;BME280;66868;42.708;23.404;2023-04-03T01:34:24;94565.38;;;6.56;76.71
77702;BME280;66868;42.708;23.404;2023-04-03T01:36:50;94559.19;;;6.46;76.52
77702;BME280;66868;42.708;23.404;2023-04-03T01:39:16;94553.81;;;6.37;77.09
77702;BME280;66868;42.708;23.404;2023-04-03T01:41:42;94555.94;;;6.29;77.09
77702;BME280;66868;42.708;23.404;2023-04-03T01:44:07;94547.81;;;6.06;77.66
77702;BME280;66868;42.708;23.404;2023-04-03T01:46:32;94559.16;;;5.81;78.90
77702;BME280;66868;42.708;23.404;2023-04-03T01:48:58;94555.22;;;5.75;78.42
77702;BME280;66868;42.708;23.404;2023-04-03T01:51:23;94565.34;;;5.73;78.87
77702;BME280;66868;42.708;23.404;2023-04-03T01:53:49;94563.81;;;5.54;79.13
77702;BME280;66868;42.708;23.404;2023-04-03T01:56:14;94571.69;;;5.29;80.63
77702;BME280;66868;42.708;23.404;2023-04-03T01:58:40;94553.00;;;5.17;80.63
77702;BME280;66868;42.708;23.404;2023-04-03T02:01:06;94573.03;;;5.36;79.88
77702;BME280;66868;42.708;23.404;2023-04-03T02:03:31;94575.09;;;5.45;78.86
77702;BME280;66868;42.708;23.404;2023-04-03T02:05:58;94574.06;;;5.49;79.19
77702;BME280;66868;42.708;23.404;2023-04-03T02:08:24;94569.78;;;5.51;78.76
77702;BME280;66868;42.708;23.404;2023-04-03T02:10:50;94566.06;;;5.41;78.48
77702;BME280;66868;42.708;23.404;2023-04-03T02:13:16;94565.28;;;5.41;78.49
77702;BME280;66868;42.708;23.404;2023-04-03T02:15:42;94572.88;;;5.39;78.32
77702;BME280;66868;42.708;23.404;2023-04-03T02:18:08;94571.31;;;5.37;78.73
77702;BME280;66868;42.708;23.404;2023-04-03T02:20:33;94557.00;;;5.39;78.84
77702;BME280;66868;42.708;23.404;2023-04-03T02:22:59;94561.06;;;5.41;79.05
77702;BME280;66868;42.708;23.404;2023-04-03T02:25:25;94554.28;;;5.43;78.74
77702;BME280;66868;42.708;23.404;2023-04-03T02:27:51;94546.16;;;5.38;79.56
77702;BME280;66868;42.708;23.404;2023-04-03T02:30:16;94542.75;;;5.39;80.24
77702;BME280;66868;42.708;23.404;2023-04-03T02:32:43;94541.50;;;5.48;79.46
77702;BME280;66868;42.708;23.404;2023-04-03T02:35:09;94545.44;;;5.53;79.74
77702;BME280;66868;42.708;23.404;2023-04-03T02:37:35;94542.25;;;5.50;80.06
77702;BME280;66868;42.708;23.404;2023-04-03T02:40:01;94530.66;;;5.47;79.87
77702;BME280;66868;42.708;23.404;2023-04-03T02:42:26;94512.94;;;5.33;79.68
77702;BME280;66868;42.708;23.404;2023-04-03T02:44:52;94537.69;;;5.41;79.19
77702;BME280;66868;42.708;23.404;2023-04-03T02:47:17;94539.22;;;5.43;79.71
77702;BME280;66868;42.708;23.404;2023-04-03T02:49:42;94536.19;;;5.37;79.78
77702;BME280;66868;42.708;23.404;2023-04-03T02:52:10;94536.13;;;5.38;79.53
77702;BME280;66868;42.708;23.404;2023-04-03T02:54:35;94540.97;;;5.41;78.18
77702;BME280;66868;42.708;23.404;2023-04-03T02:57:01;94542.47;;;5.45;78.62
77702;BME280;66868;42.708;23.404;2023-04-03T02:59:26;94534.34;;;5.40;77.67
77702;BME280;66868;42.708;23.404;2023-04-03T03:01:52;94537.91;;;5.36;77.98
77702;BME280;66868;42.708;23.404;2023-04-03T03:04:18;94524.16;;;5.26;77.24
77702;BME280;66868;42.708;23.404;2023-04-03T03:06:43;94539.94;;;5.28;78.06
77702;BME280;66868;42.708;23.404;2023-04-03T03:09:08;94530.06;;;5.25;78.04
77702;BME280;66868;42.708;23.404;2023-04-03T03:11:34;94535.81;;;5.27;78.79
77702;BME280;66868;42.708;23.404;2023-04-03T03:13:59;94537.44;;;5.28;78.01
77702;BME280;66868;42.708;23.404;2023-04-03T03:16:25;94528.31;;;5.27;78.02
77702;BME280;66868;42.708;23.404;2023-04-03T03:18:50;94540.41;;;5.36;78.52
77702;BME280;66868;42.708;23.404;2023-04-03T03:21:16;94537.91;;;5.36;78.09
77702;BME280;66868;42.708;23.404;2023-04-03T03:23:41;94520.69;;;5.28;78.05
77702;BME280;66868;42.708;23.404;2023-04-03T03:26:09;94520.56;;;5.31;78.33
77702;BME280;66868;42.708;23.404;2023-04-03T03:28:36;94513.91;;;5.30;78.06
77702;BME280;66868;42.708;23.404;2023-04-03T03:31:02;94525.78;;;5.44;78.40
77702;BME280;66868;42.708;23.404;2023-04-03T03:33:28;94524.97;;;5.44;78.47
77702;BME280;66868;42.708;23.404;2023-04-03T03:35:54;94530.81;;;5.44;78.88
77702;BME280;66868;42.708;23.404;2023-04-03T03:38:20;94526.66;;;5.43;78.15
77702;BME280;66868;42.708;23.404;2023-04-03T03:40:47;94521.22;;;5.35;78.59
77702;BME280;66868;42.708;23.404;2023-04-03T03:43:14;94531.25;;;5.35;78.46
77702;BME280;66868;42.708;23.404;2023-04-03T03:45:39;94492.63;;;5.03;77.88
77702;BME280;66868;42.708;23.404;2023-04-03T03:48:05;94538.41;;;5.25;78.30
77702;BME280;66868;42.708;23.404;2023-04-03T03:50:30;94536.97;;;5.20;78.27
77702;BME280;66868;42.708;23.404;2023-04-03T03:52:55;94529.00;;;5.12;78.72
77702;BME280;66868;42.708;23.404;2023-04-03T03:55:21;94531.97;;;5.20;78.78
77702;BME280;66868;42.708;23.404;2023-04-03T03:57:47;94523.84;;;5.15;79.44
77702;BME280;66868;42.708;23.404;2023-04-03T04:00:12;94534.91;;;5.28;79.26
77702;BME280;66868;42.708;23.404;2023-04-03T04:02:38;94534.63;;;5.34;79.60
77702;BME280;66868;42.708;23.404;2023-04-03T04:05:04;94524.59;;;5.34;78.44
77702;BME280;66868;42.708;23.404;2023-04-03T04:07:29;94532.06;;;5.36;78.90
77702;BME280;66868;42.708;23.404;2023-04-03T04:09:55;94523.28;;;5.27;78.25
77702;BME280;66868;42.708;23.404;2023-04-03T04:12:20;94530.38;;;5.36;78.63
77702;BME280;66868;42.708;23.404;2023-04-03T04:14:46;94523.56;;;5.38;78.63
77702;BME280;66868;42.708;23.404;2023-04-03T04:17:13;94527.72;;;5.39;78.54
77702;BME280;66868;42.708;23.404;2023-04-03T04:19:38;94537.69;;;5.41;78.52
77702;BME280;66868;42.708;23.404;2023-04-03T04:22:04;94548.38;;;5.44;78.37
77702;BME280;66868;42.708;23.404;2023-04-03T04:24:29;94547.41;;;5.47;78.68
77702;BME280;66868;42.708;23.404;2023-04-03T04:26:55;94534.19;;;5.43;78.06
77702;BME280;66868;42.708;23.404;2023-04-03T04:29:20;94546.69;;;5.45;77.67
77702;BME280;66868;42.708;23.404;2023-04-03T04:31:46;94555.25;;;5.41;77.83
77702;BME280;66868;42.708;23.404;2023-04-03T04:34:11;94552.81;;;5.39;77.59
77702;BME280;66868;42.708;23.404;2023-04-03T04:36:38;94544.69;;;5.34;77.97
77702;BME280;66868;42.708;23.404;2023-04-03T04:39:04;94551.81;;;5.42;78.16
77702;BME280;66868;42.708;23.404;2023-04-03T04:41:30;94561.53;;;5.49;78.30
77702;BME280;66868;42.708;23.404;2023-04-03T04:43:56;94568.75;;;5.55;77.91
77702;BME280;66868;42.708;23.404;2023-04-03T04:46:22;94550.44;;;5.53;78.13
77702;BME280;66868;42.708;23.404;2023-04-03T04:48:47;94562.63;;;5.61;78.29
77702;BME280;66868;42.708;23.404;2023-04-03T04:51:14;94568.47;;;5.61;78.00
77702;BME280;66868;42.708;23.404;2023-04-03T04:53:40;94573.47;;;5.61;77.46
77702;BME280;66868;42.708;23.404;2023-04-03T04:56:06;94562.50;;;5.64;77.94
77702;BME280;66868;42.708;23.404;2023-04-03T04:58:31;94571.03;;;5.77;78.35
77702;BME280;66868;42.708;23.404;2023-04-03T05:01:00;94578.41;;;5.80;78.28
77702;BME280;66868;42.708;23.404;2023-04-03T05:03:26;94572.16;;;5.89;77.21
77702;BME280;66868;42.708;23.404;2023-04-03T05:05:51;94579.03;;;6.02;77.08
77702;BME280;66868;42.708;23.404;2023-04-03T05:08:16;94574.66;;;6.06;76.62
77702;BME280;66868;42.708;23.404;2023-04-03T05:10:42;94597.09;;;6.26;77.16
77702;BME280;66868;42.708;23.404;2023-04-03T05:13:07;94592.59;;;6.33;76.26
77702;BME280;66868;42.708;23.404;2023-04-03T05:15:33;94611.72;;;6.35;75.89
77702;BME280;66868;42.708;23.404;2023-04-03T05:17:58;94611.09;;;6.47;75.97
77702;BME280;66868;42.708;23.404;2023-04-03T05:20:39;94597.50;;;6.51;76.12
77702;BME280;66868;42.708;23.404;2023-04-03T05:23:05;94604.69;;;6.57;75.40
77702;BME280;66868;42.708;23.404;2023-04-03T05:25:30;94602.19;;;6.57;75.09
77702;BME280;66868;42.708;23.404;2023-04-03T05:27:56;94613.22;;;6.71;75.16
77702;BME280;66868;42.708;23.404;2023-04-03T05:30:21;94609.53;;;6.78;75.60
77702;BME280;66868;42.708;23.404;2023-04-03T05:32:47;94590.84;;;6.82;74.68
77702;BME280;66868;42.708;23.404;2023-04-03T05:35:12;94585.81;;;6.82;74.76
77702;BME280;66868;42.708;23.404;2023-04-03T05:37:38;94593.06;;;6.88;74.75
77702;BME280;66868;42.708;23.404;2023-04-03T05:40:05;94601.66;;;6.99;74.61
77702;BME280;66868;42.708;23.404;2023-04-03T05:42:31;94582.00;;;6.90;74.56
77702;BME280;66868;42.708;23.404;2023-04-03T05:44:59;94590.63;;;6.86;74.42
77702;BME280;66868;42.708;23.404;2023-04-03T05:47:25;94599.53;;;6.76;74.66
77702;BME280;66868;42.708;23.404;2023-04-03T05:49:50;94605.13;;;6.65;75.40
77702;BME280;66868;42.708;23.404;2023-04-03T05:52:29;94597.78;;;6.45;76.90
77702;BME280;66868;42.708;23.404;2023-04-03T05:54:55;94593.09;;;6.22;79.22
77702;BME280;66868;42.708;23.404;2023-04-03T05:57:21;94593.84;;;6.24;80.58
77702;BME280;66868;42.708;23.404;2023-04-03T05:59:47;94593.44;;;5.99;83.05
77702;BME280;66868;42.708;23.404;2023-04-03T06:02:16;94586.19;;;6.10;82.69
77702;BME280;66868;42.708;23.404;2023-04-03T06:04:42;94585.97;;;5.97;85.03
77702;BME280;66868;42.708;23.404;2023-04-03T06:07:11;94580.38;;;6.25;82.72
77702;BME280;66868;42.708;23.404;2023-04-03T06:09:37;94568.28;;;6.16;83.00
77702;BME280;66868;42.708;23.404;2023-04-03T06:12:02;94577.91;;;6.08;83.27
77702;BME280;66868;42.708;23.404;2023-04-03T06:14:28;94574.88;;;6.34;82.67
77702;BME280;66868;42.708;23.404;2023-04-03T06:16:54;94560.66;;;6.50;81.84
77702;BME280;66868;42.708;23.404;2023-04-03T06:19:20;94565.88;;;6.79;80.15
77702;BME280;66868;42.708;23.404;2023-04-03T06:21:46;94561.75;;;6.93;79.72
77702;BME280;66868;42.708;23.404;2023-04-03T06:24:14;94560.09;;;7.24;79.34
77702;BME280;66868;42.708;23.404;2023-04-03T06:26:40;94543.31;;;7.38;78.67
77702;BME280;66868;42.708;23.404;2023-04-03T06:29:05;94570.69;;;7.74;78.09
77702;BME280;66868;42.708;23.404;2023-04-03T06:31:31;94566.31;;;7.92;77.42
77702;BME280;66868;42.708;23.404;2023-04-03T06:33:56;94580.56;;;8.21;75.25
77702;BME280;66868;42.708;23.404;2023-04-03T06:36:22;94578.50;;;8.28;73.75
77702;BME280;66868;42.708;23.404;2023-04-03T06:38:48;94589.44;;;8.42;72.65
77702;BME280;66868;42.708;23.404;2023-04-03T06:41:13;94596.28;;;8.55;72.10
77702;BME280;66868;42.708;23.404;2023-04-03T06:43:39;94603.03;;;8.68;71.75
77702;BME280;66868;42.708;23.404;2023-04-03T06:46:05;94603.03;;;8.82;71.38
77702;BME280;66868;42.708;23.404;2023-04-03T06:48:31;94589.41;;;8.85;71.45
77702;BME280;66868;42.708;23.404;2023-04-03T06:50:57;94584.00;;;8.91;71.01
77702;BME280;66868;42.708;23.404;2023-04-03T06:53:22;94586.31;;;9.08;70.87
77702;BME280;66868;42.708;23.404;2023-04-03T06:55:48;94583.13;;;9.19;70.45
77702;BME280;66868;42.708;23.404;2023-04-03T06:58:13;94589.13;;;9.30;70.34
77702;BME280;66868;42.708;23.404;2023-04-03T07:00:40;94597.56;;;9.44;69.47
77702;BME280;66868;42.708;23.404;2023-04-03T07:03:06;94591.22;;;9.51;69.81
77702;BME280;66868;42.708;23.404;2023-04-03T07:05:31;94580.84;;;9.55;69.39
77702;BME280;66868;42.708;23.404;2023-04-03T07:07:57;94576.81;;;9.65;69.31
77702;BME280;66868;42.708;23.404;2023-04-03T07:10:23;94588.72;;;9.63;68.67
77702;BME280;66868;42.708;23.404;2023-04-03T07:12:48;94594.75;;;9.75;68.16
77702;BME280;66868;42.708;23.404;2023-04-03T07:15:13;94587.09;;;9.89;67.54
77702;BME280;66868;42.708;23.404;2023-04-03T07:17:39;94586.28;;;10.01;67.36
77702;BME280;66868;42.708;23.404;2023-04-03T07:20:06;94580.31;;;10.15;66.65
77702;BME280;66868;42.708;23.404;2023-04-03T07:22:31;94581.97;;;10.29;66.53
77702;BME280;66868;42.708;23.404;2023-04-03T07:24:56;94583.38;;;10.45;66.49
77702;BME280;66868;42.708;23.404;2023-04-03T07:27:24;94591.38;;;10.64;66.05
77702;BME280;66868;42.708;23.404;2023-04-03T07:29:50;94580.13;;;10.81;65.27
77702;BME280;66868;42.708;23.404;2023-04-03T07:32:15;94573.81;;;10.99;65.51
77702;BME280;66868;42.708;23.404;2023-04-03T07:34:41;94588.72;;;11.15;64.70
77702;BME280;66868;42.708;23.404;2023-04-03T07:37:07;94569.09;;;11.19;64.92
77702;BME280;66868;42.708;23.404;2023-04-03T07:39:34;94574.53;;;11.49;63.68
77702;BME280;66868;42.708;23.404;2023-04-03T07:41:59;94581.25;;;11.61;64.71
77702;BME280;66868;42.708;23.404;2023-04-03T07:44:25;94566.13;;;11.72;63.55
77702;BME280;66868;42.708;23.404;2023-04-03T07:46:51;94564.09;;;11.88;62.99
77702;BME280;66868;42.708;23.404;2023-04-03T07:49:17;94566.91;;;11.97;62.60
77702;BME280;66868;42.708;23.404;2023-04-03T07:51:48;94546.38;;;12.00;61.87
77702;BME280;66868;42.708;23.404;2023-04-03T07:54:14;94544.31;;;12.05;61.35
77702;BME280;66868;42.708;23.404;2023-04-03T07:56:40;94552.34;;;11.87;61.88
77702;BME280;66868;42.708;23.404;2023-04-03T07:59:05;94548.28;;;11.85;62.38
77702;BME280;66868;42.708;23.404;2023-04-03T08:01:31;94552.59;;;11.95;61.61
77702;BME280;66868;42.708;23.404;2023-04-03T08:03:58;94558.66;;;11.82;62.39
77702;BME280;66868;42.708;23.404;2023-04-03T08:06:24;94550.75;;;11.98;61.41
77702;BME280;66868;42.708;23.404;2023-04-03T08:08:50;94541.44;;;12.09;61.08
77702;BME280;66868;42.708;23.404;2023-04-03T08:11:15;94543.75;;;12.23;60.85
77702;BME280;66868;42.708;23.404;2023-04-03T08:13:40;94547.81;;;12.37;60.52
77702;BME280;66868;42.708;23.404;2023-04-03T08:16:18;94546.78;;;12.51;59.57
77702;BME280;66868;42.708;23.404;2023-04-03T08:18:45;94540.91;;;12.61;59.81
77702;BME280;66868;42.708;23.404;2023-04-03T08:21:11;94536.03;;;12.69;59.21
77702;BME280;66868;42.708;23.404;2023-04-03T08:23:38;94536.16;;;12.79;59.27
77702;BME280;66868;42.708;23.404;2023-04-03T08:26:09;94540.97;;;12.93;58.57
77702;BME280;66868;42.708;23.404;2023-04-03T08:28:35;94529.75;;;13.07;58.65
77702;BME280;66868;42.708;23.404;2023-04-03T08:31:09;94526.06;;;13.11;58.37
77702;BME280;66868;42.708;23.404;2023-04-03T08:33:36;94532.38;;;13.27;57.61
77702;BME280;66868;42.708;23.404;2023-04-03T08:36:04;94539.16;;;13.38;57.57
77702;BME280;66868;42.708;23.404;2023-04-03T08:39:01;94532.22;;;13.40;57.01
77702;BME280;66868;42.708;23.404;2023-04-03T08:41:55;94514.00;;;13.24;56.75
77702;BME280;66868;42.708;23.404;2023-04-03T08:50:15;94512.13;;;13.37;57.48
77702;BME280;66868;42.708;23.404;2023-04-03T08:52:48;94507.03;;;13.37;57.20
77702;BME280;66868;42.708;23.404;2023-04-03T08:55:28;94518.34;;;13.44;57.79
77702;BME280;66868;42.708;23.404;2023-04-03T09:01:03;94499.00;;;13.53;57.09
77702;BME280;66868;42.708;23.404;2023-04-03T09:03:32;94497.72;;;13.58;56.61
77702;BME280;66868;42.708;23.404;2023-04-03T09:06:07;94497.91;;;13.66;56.45
77702;BME280;66868;42.708;23.404;2023-04-03T09:08:42;94485.97;;;13.46;57.27
77702;BME280;66868;42.708;23.404;2023-04-03T09:16:55;94487.72;;;13.87;57.16
77702;BME280;66868;42.708;23.404;2023-04-03T09:22:17;94490.72;;;14.23;55.86
77702;BME280;66868;42.708;23.404;2023-04-03T09:25:02;94487.06;;;14.36;55.87
77702;BME280;66868;42.708;23.404;2023-04-03T09:27:31;94485.22;;;14.48;55.83
77702;BME280;66868;42.708;23.404;2023-04-03T09:29:57;94474.81;;;14.61;55.02
77702;BME280;66868;42.708;23.404;2023-04-03T09:32:27;94481.97;;;14.76;54.37
77702;BME280;66868;42.708;23.404;2023-04-03T09:34:53;94473.28;;;14.88;54.49
77702;BME280;66868;42.708;23.404;2023-04-03T09:37:41;94440.56;;;14.84;54.42
77702;BME280;66868;42.708;23.404;2023-04-03T09:42:53;94473.59;;;15.33;52.93
77702;BME280;66868;42.708;23.404;2023-04-03T09:45:33;94471.44;;;15.48;52.13
77702;BME280;66868;42.708;23.404;2023-04-03T09:48:16;94465.00;;;15.63;52.04
77702;BME280;66868;42.708;23.404;2023-04-03T09:51:03;94465.28;;;15.70;51.85
77702;BME280;66868;42.708;23.404;2023-04-03T09:53:41;94464.31;;;15.80;51.48
77702;BME280;66868;42.708;23.404;2023-04-03T09:58:44;94454.84;;;16.00;50.82
77702;BME280;66868;42.708;23.404;2023-04-03T10:01:34;94460.66;;;16.02;51.64
77702;BME280;66868;42.708;23.404;2023-04-03T10:06:49;94448.31;;;15.88;51.30
77702;BME280;66868;42.708;23.404;2023-04-03T10:14:38;94444.88;;;15.51;51.79
77702;BME280;66868;42.708;23.404;2023-04-03T10:19:46;94436.69;;;15.18;52.25
77702;BME280;66868;42.708;23.404;2023-04-03T10:22:37;94438.69;;;15.05;53.36
77702;BME280;66868;42.708;23.404;2023-04-03T10:25:20;94443.63;;;14.87;54.04
77702;BME280;66868;42.708;23.404;2023-04-03T10:28:02;94415.16;;;14.63;54.76
77702;BME280;66868;42.708;23.404;2023-04-03T10:47:31;94410.47;;;14.68;55.86
77702;BME280;66868;42.708;23.404;2023-04-03T10:53:20;94399.75;;;14.65;55.97
77702;BME280;66868;42.708;23.404;2023-04-03T10:56:19;94409.53;;;14.59;56.25
77702;BME280;66868;42.708;23.404;2023-04-03T10:58:45;94401.88;;;14.59;56.46
77702;BME280;66868;42.708;23.404;2023-04-03T11:01:16;94400.53;;;14.55;55.95
77702;BME280;66868;42.708;23.404;2023-04-03T11:03:46;94410.97;;;14.52;55.85
77702;BME280;66868;42.708;23.404;2023-04-03T11:06:15;94385.88;;;14.38;56.54
77702;BME280;66868;42.708;23.404;2023-04-03T11:08:57;94417.41;;;14.47;56.25
77702;BME280;66868;42.708;23.404;2023-04-03T11:11:33;94403.94;;;14.35;56.07
77702;BME280;66868;42.708;23.404;2023-04-03T11:16:33;94419.44;;;14.23;55.92
77702;BME280;66868;42.708;23.404;2023-04-03T11:19:11;94415.34;;;14.10;58.02
77702;BME280;66868;42.708;23.404;2023-04-03T11:21:42;94415.97;;;13.93;59.28
77702;BME280;66868;42.708;23.404;2023-04-03T11:24:27;94415.53;;;13.88;60.74
77702;BME280;66868;42.708;23.404;2023-04-03T11:26:56;94406.13;;;13.79;62.24
77702;BME280;66868;42.708;23.404;2023-04-03T11:29:33;94405.03;;;13.72;62.72
77702;BME280;66868;42.708;23.404;2023-04-03T11:34:49;94409.03;;;13.75;65.07
77702;BME280;66868;42.708;23.404;2023-04-03T11:37:35;94408.81;;;13.78;65.43
77702;BME280;66868;42.708;23.404;2023-04-03T11:40:26;94402.53;;;13.61;65.46
77702;BME280;66868;42.708;23.404;2023-04-03T11:47:54;94400.38;;;13.56;68.81
77702;BME280;66868;42.708;23.404;2023-04-03T12:05:56;94400.16;;;13.07;73.34
77702;BME280;66868;42.708;23.404;2023-04-03T12:13:35;94424.50;;;12.77;75.10
77702;BME280;66868;42.708;23.404;2023-04-03T12:16:03;94411.50;;;12.60;75.84
77702;BME280;66868;42.708;23.404;2023-04-03T12:21:22;94415.09;;;12.57;77.07
77702;BME280;66868;42.708;23.404;2023-04-03T12:24:32;94404.03;;;12.47;77.78
77702;BME280;66868;42.708;23.404;2023-04-03T12:29:34;94398.06;;;12.37;79.62
77702;BME280;66868;42.708;23.404;2023-04-03T12:40:05;94391.41;;;11.91;81.21
77702;BME280;66868;42.708;23.404;2023-04-03T12:42:58;94388.19;;;11.78;82.25
77702;BME280;66868;42.708;23.404;2023-04-03T12:48:27;94371.53;;;11.63;81.94
77702;BME280;66868;42.708;23.404;2023-04-03T12:50:54;94370.38;;;11.67;82.17
77702;BME280;66868;42.708;23.404;2023-04-03T12:53:23;94364.66;;;11.65;82.34
77702;BME280;66868;42.708;23.404;2023-04-03T12:56:24;94360.50;;;11.64;84.09
77702;BME280;66868;42.708;23.404;2023-04-03T12:58:51;94366.59;;;11.62;83.54
77702;BME280;66868;42.708;23.404;2023-04-03T13:01:20;94363.09;;;11.51;84.20
77702;BME280;66868;42.708;23.404;2023-04-03T13:03:52;94349.41;;;11.43;85.14
77702;BME280;66868;42.708;23.404;2023-04-03T13:06:33;94358.28;;;11.48;84.85
77702;BME280;66868;42.708;23.404;2023-04-03T13:09:02;94360.25;;;11.45;84.81
77702;BME280;66868;42.708;23.404;2023-04-03T13:11:38;94370.81;;;11.39;85.63
77702;BME280;66868;42.708;23.404;2023-04-03T13:14:15;94341.53;;;11.13;86.59
77702;BME280;66868;42.708;23.404;2023-04-03T13:16:41;94371.97;;;11.35;85.86
77702;BME280;66868;42.708;23.404;2023-04-03T13:19:15;94365.28;;;11.34;86.45
77702;BME280;66868;42.708;23.404;2023-04-03T13:21:41;94369.78;;;11.30;86.51
77702;BME280;66868;42.708;23.404;2023-04-03T13:24:08;94353.75;;;11.30;86.58
77702;BME280;66868;42.708;23.404;2023-04-03T13:26:34;94367.13;;;11.32;86.93
77702;BME280;66868;42.708;23.404;2023-04-03T13:29:07;94357.69;;;11.23;86.49
77702;BME280;66868;42.708;23.404;2023-04-03T13:31:38;94354.66;;;11.18;86.98
77702;BME280;66868;42.708;23.404;2023-04-03T13:36:38;94352.47;;;11.24;87.07
77702;BME280;66868;42.708;23.404;2023-04-03T13:41:43;94345.34;;;11.18;87.41
77702;BME280;66868;42.708;23.404;2023-04-03T13:52:01;94350.19;;;11.21;87.35
77702;BME280;66868;42.708;23.404;2023-04-03T13:54:31;94339.47;;;11.18;87.12
77702;BME280;66868;42.708;23.404;2023-04-03T13:56:59;94336.03;;;11.19;86.91
77702;BME280;66868;42.708;23.404;2023-04-03T13:59:35;94328.97;;;11.11;86.82
77702;BME280;66868;42.708;23.404;2023-04-03T14:04:32;94335.56;;;11.14;85.66
77702;BME280;66868;42.708;23.404;2023-04-03T14:06:58;94331.16;;;11.04;85.92
77702;BME280;66868;42.708;23.404;2023-04-03T14:09:26;94328.59;;;10.93;86.42
77702;BME280;66868;42.708;23.404;2023-04-03T14:11:54;94324.22;;;10.95;86.22
77702;BME280;66868;42.708;23.404;2023-04-03T14:14:23;94319.84;;;10.86;86.27
77702;BME280;66868;42.708;23.404;2023-04-03T14:16:54;94304.84;;;10.72;86.40
77702;BME280;66868;42.708;23.404;2023-04-03T14:19:28;94316.13;;;10.79;86.91
77702;BME280;66868;42.708;23.404;2023-04-03T14:21:55;94308.03;;;10.74;87.12
77702;BME280;66868;42.708;23.404;2023-04-03T14:24:21;94321.09;;;10.81;87.17
77702;BME280;66868;42.708;23.404;2023-04-03T14:26:49;94322.09;;;10.78;87.28
77702;BME280;66868;42.708;23.404;2023-04-03T14:29:16;94323.72;;;10.79;87.25
77702;BME280;66868;42.708;23.404;2023-04-03T14:31:43;94319.31;;;10.70;87.64
77702;BME280;66868;42.708;23.404;2023-04-03T14:34:10;94309.19;;;10.70;88.01
77702;BME280;66868;42.708;23.404;2023-04-03T14:36:37;94306.97;;;10.66;88.32
77702;BME280;66868;42.708;23.404;2023-04-03T14:39:04;94309.19;;;10.70;87.29
77702;BME280;66868;42.708;23.404;2023-04-03T14:41:29;94293.03;;;10.60;88.46
77702;BME280;66868;42.708;23.404;2023-04-03T14:43:55;94314.81;;;10.74;89.18
77702;BME280;66868;42.708;23.404;2023-04-03T14:46:35;94304.84;;;10.72;90.34
77702;BME280;66868;42.708;23.404;2023-04-03T14:49:03;94308.75;;;10.76;91.09
77702;BME280;66868;42.708;23.404;2023-04-03T14:51:33;94303.69;;;10.87;91.12
77702;BME280;66868;42.708;23.404;2023-04-03T14:53:58;94304.06;;;10.94;90.76
77702;BME280;66868;42.708;23.404;2023-04-03T14:56:26;94305.13;;;11.02;89.30
77702;BME280;66868;42.708;23.404;2023-04-03T14:58:55;94291.78;;;11.00;88.56
77702;BME280;66868;42.708;23.404;2023-04-03T15:01:21;94301.91;;;11.00;88.70